Terminal Aerodrome Forecast
Issued by NWS

Home | Current Version | Previous Version | Text Only | Print | Product List | Glossary On
Versions: 1 2 3 4 5 6 7 8 9 10 11 12 13 14 15 16 17
000
FTUS46 KPDT 201800 AAA
TAFBDN
TAF AMD
KBDN 201846Z 2019/2118 34006KT P6SM BKN045
     FM202000 33010KT P6SM SCT045
     FM202200 32010G18KT P6SM SCT050
     FM210300 29010KT P6SM SKC
     FM210600 21003KT P6SM SKC=

USA.gov is the U.S. government's official web portal to all federal, state and local government web resources and services.